sensor_id;sensor_type;location;lat;lon;timestamp;P1;durP1;ratioP1;P2;durP2;ratioP2
38865;SDS011;62686;48.984;8.394;2022-11-02T07:18:45;13.50;;;3.33;;
38865;SDS011;62686;48.984;8.394;2022-11-02T07:21:13;10.87;;;3.90;;
38865;SDS011;62686;48.984;8.394;2022-11-02T07:23:41;12.83;;;3.83;;
38865;SDS011;62686;48.984;8.394;2022-11-02T07:26:09;13.30;;;3.63;;
38865;SDS011;62686;48.984;8.394;2022-11-02T07:28:37;12.07;;;3.60;;
38865;SDS011;62686;48.984;8.394;2022-11-02T07:31:05;12.50;;;3.20;;
38865;SDS011;62686;48.984;8.394;2022-11-02T07:33:33;9.90;;;3.10;;
38865;SDS011;62686;48.984;8.394;2022-11-02T07:36:03;15.37;;;3.40;;
38865;SDS011;62686;48.984;8.394;2022-11-02T07:38:32;9.67;;;3.10;;
38865;SDS011;62686;48.984;8.394;2022-11-02T07:41:00;7.87;;;2.97;;
38865;SDS011;62686;48.984;8.394;2022-11-02T07:43:29;10.07;;;3.13;;
38865;SDS011;62686;48.984;8.394;2022-11-02T07:45:58;10.20;;;3.20;;
38865;SDS011;62686;48.984;8.394;2022-11-02T07:48:28;11.00;;;3.10;;
38865;SDS011;62686;48.984;8.394;2022-11-02T07:50:56;11.23;;;2.87;;
38865;SDS011;62686;48.984;8.394;2022-11-02T07:53:26;14.23;;;2.77;;
38865;SDS011;62686;48.984;8.394;2022-11-02T07:55:55;9.57;;;2.67;;
38865;SDS011;62686;48.984;8.394;2022-11-02T07:58:23;6.83;;;2.47;;
38865;SDS011;62686;48.984;8.394;2022-11-02T08:00:52;10.07;;;2.60;;
38865;SDS011;62686;48.984;8.394;2022-11-02T08:03:23;8.97;;;2.47;;
38865;SDS011;62686;48.984;8.394;2022-11-02T08:05:52;7.23;;;2.00;;
38865;SDS011;62686;48.984;8.394;2022-11-02T08:08:21;6.77;;;2.33;;
38865;SDS011;62686;48.984;8.394;2022-11-02T08:10:51;9.90;;;2.47;;
38865;SDS011;62686;48.984;8.394;2022-11-02T08:13:20;8.67;;;2.50;;
38865;SDS011;62686;48.984;8.394;2022-11-02T08:15:51;6.33;;;2.40;;
38865;SDS011;62686;48.984;8.394;2022-11-02T08:18:20;8.60;;;2.17;;
38865;SDS011;62686;48.984;8.394;2022-11-02T08:20:50;6.40;;;2.23;;
38865;SDS011;62686;48.984;8.394;2022-11-02T08:23:20;9.57;;;2.60;;
38865;SDS011;62686;48.984;8.394;2022-11-02T08:25:48;6.73;;;2.37;;
38865;SDS011;62686;48.984;8.394;2022-11-02T08:28:19;8.03;;;2.27;;
38865;SDS011;62686;48.984;8.394;2022-11-02T08:30:56;9.23;;;1.83;;
38865;SDS011;62686;48.984;8.394;2022-11-02T08:33:28;7.87;;;2.20;;
38865;SDS011;62686;48.984;8.394;2022-11-02T08:35:59;5.07;;;1.90;;
38865;SDS011;62686;48.984;8.394;2022-11-02T08:38:29;5.80;;;1.87;;
38865;SDS011;62686;48.984;8.394;2022-11-02T08:41:00;9.03;;;2.03;;
38865;SDS011;62686;48.984;8.394;2022-11-02T08:43:30;8.87;;;1.87;;
38865;SDS011;62686;48.984;8.394;2022-11-02T08:46:01;6.10;;;1.70;;
38865;SDS011;62686;48.984;8.394;2022-11-02T08:48:44;6.20;;;1.90;;
38865;SDS011;62686;48.984;8.394;2022-11-02T08:51:25;4.63;;;1.90;;
38865;SDS011;62686;48.984;8.394;2022-11-02T08:53:59;7.53;;;2.13;;
38865;SDS011;62686;48.984;8.394;2022-11-02T08:56:28;10.30;;;1.90;;
38865;SDS011;62686;48.984;8.394;2022-11-02T08:59:01;10.52;;;2.15;;
38865;SDS011;62686;48.984;8.394;2022-11-02T09:01:29;5.80;;;2.00;;
38865;SDS011;62686;48.984;8.394;2022-11-02T09:03:58;7.68;;;2.00;;
38865;SDS011;62686;48.984;8.394;2022-11-02T09:06:26;7.28;;;1.80;;
38865;SDS011;62686;48.984;8.394;2022-11-02T09:08:56;7.55;;;1.80;;
38865;SDS011;62686;48.984;8.394;2022-11-02T09:11:25;6.32;;;1.90;;
38865;SDS011;62686;48.984;8.394;2022-11-02T09:13:53;6.55;;;2.00;;
38865;SDS011;62686;48.984;8.394;2022-11-02T09:16:23;7.07;;;1.92;;
38865;SDS011;62686;48.984;8.394;2022-11-02T09:18:52;8.90;;;2.55;;
38865;SDS011;62686;48.984;8.394;2022-11-02T09:21:20;8.73;;;2.20;;
38865;SDS011;62686;48.984;8.394;2022-11-02T09:23:48;9.38;;;2.22;;
38865;SDS011;62686;48.984;8.394;2022-11-02T09:26:16;10.98;;;1.90;;
38865;SDS011;62686;48.984;8.394;2022-11-02T09:28:44;8.13;;;2.08;;
38865;SDS011;62686;48.984;8.394;2022-11-02T09:31:12;6.43;;;2.10;;
38865;SDS011;62686;48.984;8.394;2022-11-02T09:33:42;7.03;;;2.10;;
38865;SDS011;62686;48.984;8.394;2022-11-02T09:36:10;14.82;;;2.38;;
38865;SDS011;62686;48.984;8.394;2022-11-02T09:38:38;7.20;;;2.00;;
38865;SDS011;62686;48.984;8.394;2022-11-02T09:41:17;10.63;;;2.45;;
38865;SDS011;62686;48.984;8.394;2022-11-02T09:43:52;7.65;;;2.17;;
38865;SDS011;62686;48.984;8.394;2022-11-02T09:46:29;6.40;;;2.28;;
38865;SDS011;62686;48.984;8.394;2022-11-02T09:49:02;8.20;;;2.00;;
38865;SDS011;62686;48.984;8.394;2022-11-02T09:51:33;10.95;;;1.70;;
38865;SDS011;62686;48.984;8.394;2022-11-02T09:54:07;7.90;;;2.13;;
38865;SDS011;62686;48.984;8.394;2022-11-02T09:56:42;7.85;;;2.38;;
38865;SDS011;62686;48.984;8.394;2022-11-02T09:59:15;11.20;;;2.38;;
38865;SDS011;62686;48.984;8.394;2022-11-02T10:01:51;9.45;;;2.05;;
38865;SDS011;62686;48.984;8.394;2022-11-02T10:04:41;5.93;;;2.10;;
38865;SDS011;62686;48.984;8.394;2022-11-02T10:07:20;9.40;;;1.92;;
38865;SDS011;62686;48.984;8.394;2022-11-02T10:09:56;7.72;;;2.00;;
38865;SDS011;62686;48.984;8.394;2022-11-02T10:12:32;7.72;;;2.45;;
38865;SDS011;62686;48.984;8.394;2022-11-02T10:15:10;9.52;;;2.70;;
38865;SDS011;62686;48.984;8.394;2022-11-02T10:17:42;7.75;;;2.25;;
38865;SDS011;62686;48.984;8.394;2022-11-02T10:20:18;15.05;;;3.03;;
38865;SDS011;62686;48.984;8.394;2022-11-02T10:22:53;12.00;;;2.70;;
38865;SDS011;62686;48.984;8.394;2022-11-02T10:25:26;10.85;;;2.90;;
38865;SDS011;62686;48.984;8.394;2022-11-02T10:27:57;9.85;;;2.83;;
38865;SDS011;62686;48.984;8.394;2022-11-02T10:30:29;14.20;;;3.30;;
38865;SDS011;62686;48.984;8.394;2022-11-02T10:32:59;11.27;;;2.55;;
38865;SDS011;62686;48.984;8.394;2022-11-02T10:35:30;7.57;;;2.20;;
38865;SDS011;62686;48.984;8.394;2022-11-02T10:38:19;12.63;;;2.70;;
38865;SDS011;62686;48.984;8.394;2022-11-02T10:41:00;11.15;;;2.40;;
38865;SDS011;62686;48.984;8.394;2022-11-02T10:43:50;11.00;;;2.60;;
38865;SDS011;62686;48.984;8.394;2022-11-02T10:46:44;10.73;;;3.03;;
38865;SDS011;62686;48.984;8.394;2022-11-02T10:49:20;11.77;;;2.53;;
38865;SDS011;62686;48.984;8.394;2022-11-02T10:52:05;12.30;;;2.85;;
38865;SDS011;62686;48.984;8.394;2022-11-02T10:54:34;11.02;;;2.55;;
38865;SDS011;62686;48.984;8.394;2022-11-02T10:57:06;11.43;;;2.42;;
38865;SDS011;62686;48.984;8.394;2022-11-02T10:59:38;10.57;;;2.67;;
38865;SDS011;62686;48.984;8.394;2022-11-02T11:02:09;11.43;;;2.55;;
38865;SDS011;62686;48.984;8.394;2022-11-02T11:04:39;9.80;;;2.60;;
38865;SDS011;62686;48.984;8.394;2022-11-02T11:07:12;8.45;;;2.72;;
38865;SDS011;62686;48.984;8.394;2022-11-02T11:09:47;13.02;;;3.08;;
38865;SDS011;62686;48.984;8.394;2022-11-02T11:12:19;9.55;;;3.00;;
38865;SDS011;62686;48.984;8.394;2022-11-02T11:14:51;13.40;;;2.58;;
38865;SDS011;62686;48.984;8.394;2022-11-02T11:17:42;11.23;;;3.08;;
38865;SDS011;62686;48.984;8.394;2022-11-02T11:20:31;7.57;;;2.70;;
38865;SDS011;62686;48.984;8.394;2022-11-02T11:23:18;9.48;;;2.42;;
38865;SDS011;62686;48.984;8.394;2022-11-02T11:25:54;10.55;;;2.65;;
38865;SDS011;62686;48.984;8.394;2022-11-02T11:28:25;12.63;;;2.63;;
38865;SDS011;62686;48.984;8.394;2022-11-02T11:31:03;8.30;;;2.30;;
38865;SDS011;62686;48.984;8.394;2022-11-02T11:33:40;6.38;;;2.40;;
38865;SDS011;62686;48.984;8.394;2022-11-02T11:36:21;5.82;;;2.38;;
38865;SDS011;62686;48.984;8.394;2022-11-02T11:38:57;9.20;;;2.60;;
38865;SDS011;62686;48.984;8.394;2022-11-02T11:41:27;9.45;;;2.42;;
38865;SDS011;62686;48.984;8.394;2022-11-02T11:43:57;6.63;;;2.17;;
38865;SDS011;62686;48.984;8.394;2022-11-02T11:46:37;5.78;;;2.10;;
38865;SDS011;62686;48.984;8.394;2022-11-02T11:49:11;7.60;;;2.40;;
38865;SDS011;62686;48.984;8.394;2022-11-02T11:51:50;7.57;;;2.25;;
38865;SDS011;62686;48.984;8.394;2022-11-02T11:54:23;8.52;;;2.20;;
38865;SDS011;62686;48.984;8.394;2022-11-02T11:56:53;6.97;;;2.10;;
38865;SDS011;62686;48.984;8.394;2022-11-02T11:59:24;8.13;;;2.35;;
38865;SDS011;62686;48.984;8.394;2022-11-02T12:01:57;12.15;;;2.60;;
38865;SDS011;62686;48.984;8.394;2022-11-02T12:04:28;9.38;;;2.53;;
38865;SDS011;62686;48.984;8.394;2022-11-02T12:09:59;6.68;;;2.25;;
38865;SDS011;62686;48.984;8.394;2022-11-02T12:12:41;8.23;;;2.50;;
38865;SDS011;62686;48.984;8.394;2022-11-02T12:15:25;7.50;;;2.30;;
38865;SDS011;62686;48.984;8.394;2022-11-02T12:18:06;14.27;;;2.60;;
38865;SDS011;62686;48.984;8.394;2022-11-02T12:20:52;9.77;;;2.40;;
38865;SDS011;62686;48.984;8.394;2022-11-02T12:23:39;7.43;;;2.25;;
38865;SDS011;62686;48.984;8.394;2022-11-02T12:26:24;10.90;;;2.53;;
38865;SDS011;62686;48.984;8.394;2022-11-02T12:29:11;11.45;;;3.50;;
38865;SDS011;62686;48.984;8.394;2022-11-02T12:31:56;9.55;;;2.60;;
38865;SDS011;62686;48.984;8.394;2022-11-02T12:34:44;9.35;;;3.13;;
38865;SDS011;62686;48.984;8.394;2022-11-02T12:37:53;8.18;;;2.13;;
38865;SDS011;62686;48.984;8.394;2022-11-02T12:40:32;8.27;;;2.45;;
38865;SDS011;62686;48.984;8.394;2022-11-02T12:43:21;9.57;;;2.20;;
38865;SDS011;62686;48.984;8.394;2022-11-02T12:46:00;7.28;;;2.00;;
38865;SDS011;62686;48.984;8.394;2022-11-02T12:48:33;11.18;;;2.45;;
38865;SDS011;62686;48.984;8.394;2022-11-02T12:51:13;7.35;;;2.05;;
38865;SDS011;62686;48.984;8.394;2022-11-02T12:53:48;7.55;;;2.38;;
38865;SDS011;62686;48.984;8.394;2022-11-02T12:56:21;6.40;;;2.30;;
38865;SDS011;62686;48.984;8.394;2022-11-02T12:58:55;8.00;;;2.30;;
38865;SDS011;62686;48.984;8.394;2022-11-02T13:01:24;7.57;;;2.40;;
38865;SDS011;62686;48.984;8.394;2022-11-02T13:03:59;10.20;;;2.53;;
38865;SDS011;62686;48.984;8.394;2022-11-02T13:06:33;7.13;;;2.53;;
38865;SDS011;62686;48.984;8.394;2022-11-02T13:09:06;10.00;;;2.63;;
38865;SDS011;62686;48.984;8.394;2022-11-02T13:11:39;8.18;;;2.17;;
38865;SDS011;62686;48.984;8.394;2022-11-02T13:14:12;7.57;;;2.25;;
38865;SDS011;62686;48.984;8.394;2022-11-02T13:16:45;6.35;;;2.17;;
38865;SDS011;62686;48.984;8.394;2022-11-02T13:19:29;6.88;;;2.30;;
38865;SDS011;62686;48.984;8.394;2022-11-02T13:22:02;7.43;;;2.42;;
38865;SDS011;62686;48.984;8.394;2022-11-02T13:24:35;6.13;;;2.22;;
38865;SDS011;62686;48.984;8.394;2022-11-02T13:27:10;7.85;;;2.30;;
38865;SDS011;62686;48.984;8.394;2022-11-02T13:30:03;8.95;;;2.55;;
38865;SDS011;62686;48.984;8.394;2022-11-02T13:32:36;7.60;;;2.35;;
38865;SDS011;62686;48.984;8.394;2022-11-02T13:35:12;4.72;;;1.80;;
38865;SDS011;62686;48.984;8.394;2022-11-02T13:37:46;9.55;;;2.25;;
38865;SDS011;62686;48.984;8.394;2022-11-02T13:40:19;8.02;;;2.58;;
38865;SDS011;62686;48.984;8.394;2022-11-02T13:42:58;5.95;;;2.13;;
38865;SDS011;62686;48.984;8.394;2022-11-02T13:45:44;8.05;;;2.45;;
38865;SDS011;62686;48.984;8.394;2022-11-02T13:51:25;6.88;;;2.30;;
38865;SDS011;62686;48.984;8.394;2022-11-02T13:53:59;7.78;;;2.20;;
38865;SDS011;62686;48.984;8.394;2022-11-02T13:56:29;7.18;;;2.28;;
38865;SDS011;62686;48.984;8.394;2022-11-02T13:59:01;9.52;;;2.25;;
38865;SDS011;62686;48.984;8.394;2022-11-02T14:01:34;6.80;;;1.98;;
38865;SDS011;62686;48.984;8.394;2022-11-02T14:04:06;8.82;;;2.40;;
38865;SDS011;62686;48.984;8.394;2022-11-02T14:06:44;6.97;;;2.10;;
38865;SDS011;62686;48.984;8.394;2022-11-02T14:09:24;11.27;;;2.25;;
38865;SDS011;62686;48.984;8.394;2022-11-02T14:15:35;9.10;;;2.17;;
38865;SDS011;62686;48.984;8.394;2022-11-02T14:18:17;10.27;;;2.15;;
38865;SDS011;62686;48.984;8.394;2022-11-02T14:20:56;7.93;;;2.38;;
38865;SDS011;62686;48.984;8.394;2022-11-02T14:23:37;6.65;;;2.00;;
38865;SDS011;62686;48.984;8.394;2022-11-02T14:29:02;9.63;;;2.28;;
38865;SDS011;62686;48.984;8.394;2022-11-02T14:31:55;5.97;;;2.13;;
38865;SDS011;62686;48.984;8.394;2022-11-02T14:34:35;8.55;;;2.47;;
38865;SDS011;62686;48.984;8.394;2022-11-02T14:37:23;11.55;;;2.53;;
38865;SDS011;62686;48.984;8.394;2022-11-02T14:40:03;8.18;;;2.30;;
38865;SDS011;62686;48.984;8.394;2022-11-02T14:42:51;5.60;;;2.00;;
38865;SDS011;62686;48.984;8.394;2022-11-02T14:45:34;11.90;;;2.75;;
38865;SDS011;62686;48.984;8.394;2022-11-02T14:48:14;8.02;;;2.30;;
38865;SDS011;62686;48.984;8.394;2022-11-02T14:50:43;6.88;;;2.30;;
38865;SDS011;62686;48.984;8.394;2022-11-02T14:53:25;11.98;;;2.65;;
38865;SDS011;62686;48.984;8.394;2022-11-02T14:55:55;8.18;;;1.95;;
38865;SDS011;62686;48.984;8.394;2022-11-02T14:58:25;11.35;;;2.72;;
38865;SDS011;62686;48.984;8.394;2022-11-02T15:00:59;14.43;;;3.25;;
38865;SDS011;62686;48.984;8.394;2022-11-02T15:03:35;10.25;;;2.70;;
38865;SDS011;62686;48.984;8.394;2022-11-02T15:06:06;10.73;;;2.63;;
38865;SDS011;62686;48.984;8.394;2022-11-02T15:08:48;9.82;;;2.45;;
38865;SDS011;62686;48.984;8.394;2022-11-02T15:20:28;13.88;;;2.97;;
38865;SDS011;62686;48.984;8.394;2022-11-02T15:22:58;9.20;;;1.95;;
38865;SDS011;62686;48.984;8.394;2022-11-02T15:25:46;7.60;;;2.10;;
38865;SDS011;62686;48.984;8.394;2022-11-02T15:28:18;7.17;;;2.10;;
38865;SDS011;62686;48.984;8.394;2022-11-02T15:30:49;7.23;;;2.50;;
38865;SDS011;62686;48.984;8.394;2022-11-02T15:33:21;8.03;;;2.20;;
38865;SDS011;62686;48.984;8.394;2022-11-02T15:35:59;9.27;;;2.70;;
38865;SDS011;62686;48.984;8.394;2022-11-02T15:38:29;8.07;;;2.47;;
38865;SDS011;62686;48.984;8.394;2022-11-02T15:41:04;8.53;;;2.10;;
38865;SDS011;62686;48.984;8.394;2022-11-02T15:43:51;9.20;;;2.27;;
38865;SDS011;62686;48.984;8.394;2022-11-02T15:46:43;11.40;;;2.53;;
38865;SDS011;62686;48.984;8.394;2022-11-02T15:49:27;14.50;;;3.27;;
38865;SDS011;62686;48.984;8.394;2022-11-02T15:52:12;9.83;;;2.87;;
38865;SDS011;62686;48.984;8.394;2022-11-02T15:54:54;9.87;;;3.53;;
38865;SDS011;62686;48.984;8.394;2022-11-02T15:57:34;10.53;;;3.03;;
38865;SDS011;62686;48.984;8.394;2022-11-02T16:00:13;9.37;;;2.67;;
38865;SDS011;62686;48.984;8.394;2022-11-02T16:02:45;10.40;;;2.80;;
38865;SDS011;62686;48.984;8.394;2022-11-02T16:05:15;11.87;;;2.67;;
38865;SDS011;62686;48.984;8.394;2022-11-02T16:07:48;12.47;;;3.10;;
38865;SDS011;62686;48.984;8.394;2022-11-02T16:10:38;9.73;;;2.57;;
38865;SDS011;62686;48.984;8.394;2022-11-02T16:13:12;11.53;;;2.67;;
38865;SDS011;62686;48.984;8.394;2022-11-02T16:15:43;9.83;;;3.20;;
38865;SDS011;62686;48.984;8.394;2022-11-02T16:18:23;9.07;;;2.83;;
38865;SDS011;62686;48.984;8.394;2022-11-02T16:20:53;14.67;;;3.03;;
38865;SDS011;62686;48.984;8.394;2022-11-02T16:23:26;13.33;;;4.20;;
38865;SDS011;62686;48.984;8.394;2022-11-02T16:25:57;14.60;;;3.83;;
38865;SDS011;62686;48.984;8.394;2022-11-02T16:28:27;17.00;;;4.40;;
38865;SDS011;62686;48.984;8.394;2022-11-02T16:30:57;20.70;;;5.10;;
38865;SDS011;62686;48.984;8.394;2022-11-02T16:33:32;9.30;;;4.13;;
38865;SDS011;62686;48.984;8.394;2022-11-02T16:36:04;13.50;;;5.23;;
38865;SDS011;62686;48.984;8.394;2022-11-02T16:38:35;15.90;;;4.77;;
38865;SDS011;62686;48.984;8.394;2022-11-02T16:41:05;14.07;;;4.40;;
38865;SDS011;62686;48.984;8.394;2022-11-02T16:43:35;12.83;;;4.23;;
38865;SDS011;62686;48.984;8.394;2022-11-02T16:46:05;14.67;;;4.20;;
38865;SDS011;62686;48.984;8.394;2022-11-02T16:48:33;13.23;;;3.63;;
38865;SDS011;62686;48.984;8.394;2022-11-02T16:51:03;11.17;;;3.17;;
38865;SDS011;62686;48.984;8.394;2022-11-02T16:53:38;11.30;;;3.73;;
38865;SDS011;62686;48.984;8.394;2022-11-02T16:56:21;17.80;;;3.77;;
38865;SDS011;62686;48.984;8.394;2022-11-02T16:58:55;14.47;;;3.73;;
38865;SDS011;62686;48.984;8.394;2022-11-02T17:01:26;14.50;;;3.80;;
38865;SDS011;62686;48.984;8.394;2022-11-02T17:04:12;12.00;;;3.87;;
38865;SDS011;62686;48.984;8.394;2022-11-02T17:06:45;12.20;;;3.93;;
38865;SDS011;62686;48.984;8.394;2022-11-02T17:09:21;13.83;;;3.97;;
38865;SDS011;62686;48.984;8.394;2022-11-02T17:11:52;15.57;;;3.60;;
38865;SDS011;62686;48.984;8.394;2022-11-02T17:14:22;12.03;;;3.37;;
38865;SDS011;62686;48.984;8.394;2022-11-02T17:16:55;14.53;;;3.80;;
38865;SDS011;62686;48.984;8.394;2022-11-02T17:19:44;13.27;;;3.67;;
38865;SDS011;62686;48.984;8.394;2022-11-02T17:22:14;15.13;;;4.23;;
38865;SDS011;62686;48.984;8.394;2022-11-02T17:25:02;17.87;;;7.60;;
38865;SDS011;62686;48.984;8.394;2022-11-02T17:27:37;19.43;;;8.27;;
38865;SDS011;62686;48.984;8.394;2022-11-02T17:30:19;23.53;;;9.10;;
38865;SDS011;62686;48.984;8.394;2022-11-02T17:33:08;13.90;;;6.63;;
38865;SDS011;62686;48.984;8.394;2022-11-02T17:35:43;22.03;;;7.77;;
38865;SDS011;62686;48.984;8.394;2022-11-02T17:38:12;24.43;;;9.03;;
38865;SDS011;62686;48.984;8.394;2022-11-02T17:40:42;27.17;;;8.87;;
38865;SDS011;62686;48.984;8.394;2022-11-02T17:43:10;20.97;;;8.03;;
38865;SDS011;62686;48.984;8.394;2022-11-02T17:45:37;20.03;;;7.60;;
38865;SDS011;62686;48.984;8.394;2022-11-02T17:48:06;21.63;;;5.70;;
38865;SDS011;62686;48.984;8.394;2022-11-02T17:50:36;12.70;;;5.30;;
38865;SDS011;62686;48.984;8.394;2022-11-02T17:53:05;17.00;;;5.03;;
38865;SDS011;62686;48.984;8.394;2022-11-02T17:55:39;16.47;;;5.00;;
38865;SDS011;62686;48.984;8.394;2022-11-02T17:58:09;15.13;;;5.13;;
38865;SDS011;62686;48.984;8.394;2022-11-02T18:00:39;20.27;;;5.60;;
38865;SDS011;62686;48.984;8.394;2022-11-02T18:03:10;19.90;;;5.33;;
38865;SDS011;62686;48.984;8.394;2022-11-02T18:05:41;12.93;;;6.37;;
38865;SDS011;62686;48.984;8.394;2022-11-02T18:08:10;15.97;;;8.50;;
38865;SDS011;62686;48.984;8.394;2022-11-02T18:10:38;27.60;;;9.90;;
38865;SDS011;62686;48.984;8.394;2022-11-02T18:13:10;21.50;;;9.23;;
38865;SDS011;62686;48.984;8.394;2022-11-02T18:15:39;17.87;;;9.73;;
38865;SDS011;62686;48.984;8.394;2022-11-02T18:18:08;21.80;;;9.60;;
38865;SDS011;62686;48.984;8.394;2022-11-02T18:20:37;19.23;;;9.80;;
38865;SDS011;62686;48.984;8.394;2022-11-02T18:23:08;20.97;;;9.70;;
38865;SDS011;62686;48.984;8.394;2022-11-02T18:25:41;16.83;;;9.40;;
38865;SDS011;62686;48.984;8.394;2022-11-02T18:28:11;24.00;;;9.37;;
38865;SDS011;62686;48.984;8.394;2022-11-02T18:30:40;22.27;;;8.20;;
38865;SDS011;62686;48.984;8.394;2022-11-02T18:33:09;20.53;;;7.30;;
38865;SDS011;62686;48.984;8.394;2022-11-02T18:35:38;15.97;;;7.40;;
38865;SDS011;62686;48.984;8.394;2022-11-02T18:38:07;21.50;;;7.90;;
38865;SDS011;62686;48.984;8.394;2022-11-02T18:40:35;15.77;;;7.43;;
38865;SDS011;62686;48.984;8.394;2022-11-02T18:43:03;16.20;;;7.60;;
38865;SDS011;62686;48.984;8.394;2022-11-02T18:45:33;16.73;;;7.80;;
38865;SDS011;62686;48.984;8.394;2022-11-02T18:48:02;16.20;;;7.80;;
38865;SDS011;62686;48.984;8.394;2022-11-02T18:50:30;18.40;;;8.83;;
38865;SDS011;62686;48.984;8.394;2022-11-02T18:52:58;23.80;;;9.03;;
38865;SDS011;62686;48.984;8.394;2022-11-02T18:55:26;16.10;;;8.20;;
38865;SDS011;62686;48.984;8.394;2022-11-02T18:57:54;20.87;;;9.30;;
38865;SDS011;62686;48.984;8.394;2022-11-02T19:00:23;16.73;;;8.83;;
38865;SDS011;62686;48.984;8.394;2022-11-02T19:02:52;17.70;;;8.53;;
38865;SDS011;62686;48.984;8.394;2022-11-02T19:05:20;20.00;;;9.13;;
38865;SDS011;62686;48.984;8.394;2022-11-02T19:08:07;23.13;;;9.80;;
38865;SDS011;62686;48.984;8.394;2022-11-02T19:10:53;23.13;;;12.57;;
38865;SDS011;62686;48.984;8.394;2022-11-02T19:13:21;21.70;;;9.53;;
38865;SDS011;62686;48.984;8.394;2022-11-02T19:15:49;23.00;;;8.63;;
38865;SDS011;62686;48.984;8.394;2022-11-02T19:18:18;16.50;;;8.53;;
38865;SDS011;62686;48.984;8.394;2022-11-02T19:20:47;18.97;;;8.67;;
38865;SDS011;62686;48.984;8.394;2022-11-02T19:23:15;18.17;;;8.40;;
38865;SDS011;62686;48.984;8.394;2022-11-02T19:25:47;17.03;;;8.83;;
38865;SDS011;62686;48.984;8.394;2022-11-02T19:28:16;37.07;;;23.90;;
38865;SDS011;62686;48.984;8.394;2022-11-02T19:30:45;28.57;;;19.53;;
38865;SDS011;62686;48.984;8.394;2022-11-02T19:33:13;25.73;;;18.50;;
38865;SDS011;62686;48.984;8.394;2022-11-02T19:35:48;20.83;;;10.60;;
38865;SDS011;62686;48.984;8.394;2022-11-02T19:38:21;16.10;;;7.90;;
38865;SDS011;62686;48.984;8.394;2022-11-02T19:40:58;16.57;;;7.60;;
38865;SDS011;62686;48.984;8.394;2022-11-02T19:43:27;17.57;;;7.10;;
38865;SDS011;62686;48.984;8.394;2022-11-02T19:45:58;16.13;;;6.90;;
38865;SDS011;62686;48.984;8.394;2022-11-02T19:48:27;20.53;;;11.40;;
38865;SDS011;62686;48.984;8.394;2022-11-02T19:51:04;18.17;;;10.93;;
38865;SDS011;62686;48.984;8.394;2022-11-02T19:53:33;18.70;;;11.00;;
38865;SDS011;62686;48.984;8.394;2022-11-02T19:56:02;24.87;;;10.63;;
38865;SDS011;62686;48.984;8.394;2022-11-02T19:58:32;20.43;;;10.40;;
38865;SDS011;62686;48.984;8.394;2022-11-02T20:01:03;13.70;;;7.90;;
38865;SDS011;62686;48.984;8.394;2022-11-02T20:03:32;20.50;;;9.20;;
38865;SDS011;62686;48.984;8.394;2022-11-02T20:06:01;19.77;;;10.90;;
38865;SDS011;62686;48.984;8.394;2022-11-02T20:08:33;29.93;;;12.20;;
38865;SDS011;62686;48.984;8.394;2022-11-02T20:11:02;26.77;;;11.13;;
38865;SDS011;62686;48.984;8.394;2022-11-02T20:13:32;19.13;;;9.50;;
38865;SDS011;62686;48.984;8.394;2022-11-02T20:16:01;14.67;;;7.93;;
38865;SDS011;62686;48.984;8.394;2022-11-02T20:18:34;20.27;;;8.23;;
38865;SDS011;62686;48.984;8.394;2022-11-02T20:21:06;21.53;;;8.73;;
38865;SDS011;62686;48.984;8.394;2022-11-02T20:23:36;19.97;;;9.10;;
38865;SDS011;62686;48.984;8.394;2022-11-02T20:26:06;17.57;;;8.57;;
38865;SDS011;62686;48.984;8.394;2022-11-02T20:28:36;20.13;;;9.37;;
38865;SDS011;62686;48.984;8.394;2022-11-02T20:31:05;16.07;;;7.90;;
38865;SDS011;62686;48.984;8.394;2022-11-02T20:33:34;15.40;;;6.53;;
38865;SDS011;62686;48.984;8.394;2022-11-02T20:36:05;13.70;;;6.37;;
38865;SDS011;62686;48.984;8.394;2022-11-02T20:38:34;18.60;;;6.33;;
38865;SDS011;62686;48.984;8.394;2022-11-02T20:41:04;14.70;;;6.10;;
38865;SDS011;62686;48.984;8.394;2022-11-02T20:43:33;19.37;;;6.90;;
38865;SDS011;62686;48.984;8.394;2022-11-02T20:46:03;14.23;;;6.77;;
38865;SDS011;62686;48.984;8.394;2022-11-02T20:48:49;12.13;;;6.70;;
38865;SDS011;62686;48.984;8.394;2022-11-02T20:51:19;15.97;;;6.80;;
38865;SDS011;62686;48.984;8.394;2022-11-02T20:53:51;14.03;;;7.10;;
38865;SDS011;62686;48.984;8.394;2022-11-02T20:56:19;12.63;;;6.77;;
38865;SDS011;62686;48.984;8.394;2022-11-02T20:58:50;12.23;;;6.43;;
38865;SDS011;62686;48.984;8.394;2022-11-02T21:01:20;14.70;;;6.47;;
38865;SDS011;62686;48.984;8.394;2022-11-02T21:03:49;16.83;;;6.53;;
38865;SDS011;62686;48.984;8.394;2022-11-02T21:06:20;10.70;;;6.10;;
38865;SDS011;62686;48.984;8.394;2022-11-02T21:08:48;19.50;;;6.97;;
38865;SDS011;62686;48.984;8.394;2022-11-02T21:11:17;13.93;;;5.87;;
38865;SDS011;62686;48.984;8.394;2022-11-02T21:14:02;14.73;;;6.07;;
38865;SDS011;62686;48.984;8.394;2022-11-02T21:16:30;13.70;;;6.33;;
38865;SDS011;62686;48.984;8.394;2022-11-02T21:19:00;16.60;;;5.73;;
38865;SDS011;62686;48.984;8.394;2022-11-02T21:21:29;11.33;;;5.63;;
38865;SDS011;62686;48.984;8.394;2022-11-02T21:23:58;10.70;;;5.27;;
38865;SDS011;62686;48.984;8.394;2022-11-02T21:26:27;15.63;;;6.17;;
38865;SDS011;62686;48.984;8.394;2022-11-02T21:28:59;13.07;;;6.17;;
38865;SDS011;62686;48.984;8.394;2022-11-02T21:31:27;13.07;;;5.57;;
38865;SDS011;62686;48.984;8.394;2022-11-02T21:33:55;13.47;;;6.30;;
38865;SDS011;62686;48.984;8.394;2022-11-02T21:36:24;11.70;;;6.23;;
38865;SDS011;62686;48.984;8.394;2022-11-02T21:38:53;12.10;;;6.13;;
38865;SDS011;62686;48.984;8.394;2022-11-02T21:41:22;13.37;;;6.40;;
38865;SDS011;62686;48.984;8.394;2022-11-02T21:43:54;14.13;;;7.10;;
38865;SDS011;62686;48.984;8.394;2022-11-02T21:46:22;11.43;;;5.83;;
38865;SDS011;62686;48.984;8.394;2022-11-02T21:48:51;12.70;;;6.17;;
38865;SDS011;62686;48.984;8.394;2022-11-02T21:51:21;16.70;;;7.00;;
38865;SDS011;62686;48.984;8.394;2022-11-02T21:53:49;11.87;;;7.10;;
38865;SDS011;62686;48.984;8.394;2022-11-02T21:56:20;13.73;;;6.33;;
38865;SDS011;62686;48.984;8.394;2022-11-02T21:58:51;17.80;;;7.30;;
38865;SDS011;62686;48.984;8.394;2022-11-02T22:01:21;13.03;;;6.23;;
38865;SDS011;62686;48.984;8.394;2022-11-02T22:04:08;11.50;;;7.43;;
38865;SDS011;62686;48.984;8.394;2022-11-02T22:06:37;12.30;;;6.80;;
38865;SDS011;62686;48.984;8.394;2022-11-02T22:09:06;19.23;;;7.80;;
38865;SDS011;62686;48.984;8.394;2022-11-02T22:11:38;14.73;;;7.93;;
38865;SDS011;62686;48.984;8.394;2022-11-02T22:14:07;14.17;;;8.03;;
38865;SDS011;62686;48.984;8.394;2022-11-02T22:16:35;16.50;;;8.07;;
38865;SDS011;62686;48.984;8.394;2022-11-02T22:19:05;15.30;;;7.10;;
38865;SDS011;62686;48.984;8.394;2022-11-02T22:21:35;12.83;;;6.77;;
38865;SDS011;62686;48.984;8.394;2022-11-02T22:24:04;15.83;;;6.43;;
38865;SDS011;62686;48.984;8.394;2022-11-02T22:26:34;11.90;;;5.80;;
38865;SDS011;62686;48.984;8.394;2022-11-02T22:29:04;12.43;;;6.40;;
38865;SDS011;62686;48.984;8.394;2022-11-02T22:31:34;8.97;;;5.70;;
38865;SDS011;62686;48.984;8.394;2022-11-02T22:34:04;16.17;;;5.40;;
38865;SDS011;62686;48.984;8.394;2022-11-02T22:36:33;11.20;;;5.30;;
38865;SDS011;62686;48.984;8.394;2022-11-02T22:39:03;14.07;;;6.50;;
38865;SDS011;62686;48.984;8.394;2022-11-02T22:41:33;15.43;;;6.40;;
38865;SDS011;62686;48.984;8.394;2022-11-02T22:44:03;12.00;;;5.40;;
38865;SDS011;62686;48.984;8.394;2022-11-02T22:46:34;14.10;;;6.73;;
38865;SDS011;62686;48.984;8.394;2022-11-02T22:49:04;18.07;;;8.37;;
38865;SDS011;62686;48.984;8.394;2022-11-02T22:51:34;15.03;;;7.20;;
38865;SDS011;62686;48.984;8.394;2022-11-02T22:54:05;14.33;;;7.23;;